createdAt,value
2023-01-03T00:00:41.881Z,78.12
2023-01-03T00:03:27.697Z,79.29
2023-01-03T00:06:22.390Z,78.29
2023-01-03T00:09:10.577Z,79.35
2023-01-03T00:12:14.650Z,78.92
2023-01-03T00:15:00.761Z,79.20
2023-01-03T00:17:46.057Z,79.66
2023-01-03T00:20:32.703Z,79.63
2023-01-03T00:23:18.080Z,79.16
2023-01-03T00:26:15.563Z,79.89
2023-01-03T00:29:01.575Z,80.08
2023-01-03T00:31:47.086Z,79.46
2023-01-03T00:34:33.902Z,79.61
2023-01-03T00:37:19.416Z,80.08
2023-01-03T00:40:05.419Z,79.97
2023-01-03T00:43:09.492Z,80.72
2023-01-03T00:45:54.852Z,79.95
2023-01-03T00:48:40.492Z,79.52
2023-01-03T00:51:28.023Z,79.73
2023-01-03T00:54:14.567Z,79.87
2023-01-03T00:57:00.087Z,79.78
2023-01-03T00:59:45.283Z,80.02
2023-01-03T01:02:31.025Z,80.46
2023-01-03T01:05:16.563Z,80.50
2023-01-03T01:08:02.970Z,80.26
2023-01-03T01:11:02.005Z,80.41
2023-01-03T01:13:48.422Z,79.92
2023-01-03T01:16:33.972Z,79.75
2023-01-03T01:19:22.548Z,79.21
2023-01-03T01:22:08.911Z,79.82
2023-01-03T01:24:54.692Z,79.91
2023-01-03T01:27:40.028Z,80.01
2023-01-03T01:30:25.404Z,80.70
2023-01-03T01:33:10.689Z,80.41
2023-01-03T01:35:55.882Z,80.31
2023-01-03T01:38:41.172Z,81.08
2023-01-03T01:41:47.156Z,81.11
2023-01-03T01:44:55.796Z,80.50
2023-01-03T01:48:01.689Z,80.67
2023-01-03T01:50:52.635Z,80.52
2023-01-03T01:53:41.641Z,80.47
2023-01-03T01:56:33.518Z,80.66
2023-01-03T01:59:19.069Z,80.56
2023-01-03T02:02:06.057Z,81.53
2023-01-03T02:04:55.169Z,81.17
2023-01-03T02:07:40.622Z,81.02
2023-01-03T02:10:55.007Z,81.56
2023-01-03T02:14:07.329Z,80.82
2023-01-03T02:16:52.893Z,81.51
2023-01-03T02:19:47.328Z,80.42
2023-01-03T02:22:41.968Z,80.96
2023-01-03T02:25:59.617Z,80.61
2023-01-03T02:29:22.913Z,80.53
2023-01-03T02:32:23.772Z,80.55
2023-01-03T02:35:15.809Z,80.44
2023-01-03T02:38:46.607Z,81.04
2023-01-03T02:42:13.884Z,80.61
2023-01-03T02:45:06.375Z,80.72
2023-01-03T02:48:11.676Z,81.44
2023-01-03T02:51:01.851Z,80.54
2023-01-03T02:53:50.524Z,80.91
2023-01-03T02:56:42.678Z,80.78
2023-01-03T02:59:38.826Z,80.67
2023-01-03T03:02:29.323Z,80.70
2023-01-03T03:05:23.562Z,81.47
2023-01-03T03:08:08.876Z,81.88
2023-01-03T03:11:13.547Z,81.47
2023-01-03T03:14:12.033Z,81.57
2023-01-03T03:17:03.761Z,81.09
2023-01-03T03:20:14.560Z,81.06
2023-01-03T03:23:25.529Z,81.23
2023-01-03T03:26:15.090Z,81.18
2023-01-03T03:29:08.642Z,81.87
2023-01-03T03:31:55.742Z,81.49
2023-01-03T03:34:44.472Z,81.49
2023-01-03T03:37:31.727Z,81.15
2023-01-03T03:40:35.800Z,80.92
2023-01-03T03:43:51.406Z,81.11
2023-01-03T03:46:50.586Z,81.74
2023-01-03T03:49:44.011Z,81.77
2023-01-03T03:52:32.142Z,81.58
2023-01-03T03:55:25.740Z,81.91
2023-01-03T03:58:21.991Z,81.86
2023-01-03T04:01:10.886Z,81.88
2023-01-03T04:04:00.289Z,81.25
2023-01-03T04:06:49.214Z,82.28
2023-01-03T04:09:34.902Z,81.60
2023-01-03T04:12:20.364Z,81.63
2023-01-03T04:15:07.106Z,81.43
2023-01-03T04:17:53.032Z,81.50
2023-01-03T04:20:38.584Z,81.55
2023-01-03T04:23:24.314Z,81.83
2023-01-03T04:26:09.750Z,81.60
2023-01-03T04:28:55.364Z,80.37
2023-01-03T04:31:41.111Z,80.83
2023-01-03T04:34:26.531Z,81.02
2023-01-03T04:37:11.904Z,81.32
2023-01-03T04:39:57.574Z,80.80
2023-01-03T04:43:01.864Z,81.08
2023-01-03T04:45:50.883Z,81.40
2023-01-03T04:48:36.108Z,81.41
2023-01-03T04:51:21.541Z,81.01
2023-01-03T04:54:07.319Z,81.64
2023-01-03T04:56:52.806Z,81.58
2023-01-03T04:59:38.269Z,81.62
2023-01-03T05:02:23.759Z,80.99
2023-01-03T05:05:09.881Z,81.54
2023-01-03T05:07:55.074Z,81.53
2023-01-03T05:10:41.538Z,81.83
2023-01-03T05:13:26.840Z,82.00
2023-01-03T05:16:14.739Z,81.76
2023-01-03T05:19:00.531Z,82.12
2023-01-03T05:22:04.533Z,82.44
2023-01-03T05:25:08.738Z,81.43
2023-01-03T05:27:55.994Z,81.93
2023-01-03T05:30:41.703Z,81.56
2023-01-03T05:33:27.378Z,81.95
2023-01-03T05:36:12.840Z,81.77
2023-01-03T05:38:58.171Z,81.75
2023-01-03T05:42:01.859Z,82.02
2023-01-03T05:44:48.948Z,82.34
2023-01-03T05:47:34.110Z,82.41
2023-01-03T05:50:19.458Z,82.43
2023-01-03T05:53:04.918Z,82.18
2023-01-03T05:55:50.217Z,82.67
2023-01-03T05:58:35.659Z,82.66
2023-01-03T06:01:21.160Z,82.60
2023-01-03T06:04:07.323Z,82.73
2023-01-03T06:06:53.047Z,83.05
2023-01-03T06:09:38.747Z,83.09
2023-01-03T06:12:27.280Z,83.00
2023-01-03T06:15:12.593Z,83.07
2023-01-03T06:18:00.163Z,83.28
2023-01-03T06:20:45.691Z,83.25
2023-01-03T06:23:31.395Z,83.46
2023-01-03T06:26:19.328Z,83.34
2023-01-03T06:29:05.897Z,83.33
2023-01-03T06:31:51.573Z,83.63
2023-01-03T06:34:37.720Z,83.76
2023-01-03T06:37:23.335Z,83.86
2023-01-03T06:40:09.278Z,83.96
2023-01-03T06:42:54.459Z,83.87
2023-01-03T06:46:00.933Z,83.99
2023-01-03T06:49:05.234Z,83.75
2023-01-03T06:52:10.074Z,84.23
2023-01-03T06:54:55.286Z,83.99
2023-01-03T06:57:40.810Z,83.92
2023-01-03T07:00:26.024Z,84.32
2023-01-03T07:03:11.945Z,84.33
2023-01-03T07:05:57.631Z,84.19
2023-01-03T07:08:48.061Z,84.57
2023-01-03T07:11:34.627Z,84.29
2023-01-03T07:14:20.135Z,83.95
2023-01-03T07:17:05.382Z,84.64
2023-01-03T07:19:50.742Z,84.38
2023-01-03T07:22:36.005Z,84.69
2023-01-03T07:25:21.498Z,84.45
2023-01-03T07:28:12.574Z,84.37
2023-01-03T07:31:03.398Z,84.38
2023-01-03T07:33:48.895Z,84.64
2023-01-03T07:36:34.190Z,84.40
2023-01-03T07:39:19.670Z,84.39
2023-01-03T07:42:23.513Z,84.79
2023-01-03T07:45:09.462Z,84.20
2023-01-03T07:47:55.358Z,84.41
2023-01-03T07:50:41.250Z,84.64
2023-01-03T07:53:27.299Z,84.78
2023-01-03T07:56:15.519Z,84.50
2023-01-03T07:59:01.137Z,84.85
2023-01-03T08:01:46.633Z,85.17
2023-01-03T08:04:32.444Z,84.84
2023-01-03T08:07:17.779Z,85.29
2023-01-03T08:10:21.827Z,85.26
2023-01-03T08:13:18.575Z,85.59
2023-01-03T08:16:04.762Z,85.67
2023-01-03T08:18:50.311Z,85.42
2023-01-03T08:21:36.150Z,85.48
2023-01-03T08:24:21.785Z,85.71
2023-01-03T08:27:07.279Z,85.96
2023-01-03T08:29:52.750Z,85.52
2023-01-03T08:32:38.902Z,85.91
2023-01-03T08:35:26.019Z,85.94
2023-01-03T08:38:21.701Z,86.00
2023-01-03T08:41:09.775Z,85.67
2023-01-03T08:43:56.099Z,86.11
2023-01-03T08:46:46.180Z,86.30
2023-01-03T08:49:32.486Z,85.97
2023-01-03T08:52:18.043Z,85.90
2023-01-03T08:55:04.684Z,85.97
2023-01-03T08:57:50.205Z,86.21
2023-01-03T09:00:37.350Z,86.49
2023-01-03T09:03:23.031Z,86.35
2023-01-03T09:06:09.004Z,86.57
2023-01-03T09:08:54.426Z,86.13
2023-01-03T09:11:39.678Z,85.97
2023-01-03T09:14:25.091Z,86.01
2023-01-03T09:17:10.418Z,85.78
2023-01-03T09:19:55.834Z,86.09
2023-01-03T09:22:41.588Z,85.50
2023-01-03T09:25:30.397Z,85.60
2023-01-03T09:28:19.243Z,85.85
2023-01-03T09:31:05.012Z,85.72
2023-01-03T09:33:50.497Z,85.70
2023-01-03T09:36:38.598Z,85.34
2023-01-03T09:39:24.514Z,85.59
2023-01-03T09:42:41.315Z,85.36
2023-01-03T09:45:31.404Z,85.63
2023-01-03T09:48:18.986Z,85.36
2023-01-03T09:51:30.053Z,85.18
2023-01-03T09:54:48.604Z,85.64
2023-01-03T09:57:54.454Z,85.48
2023-01-03T10:01:04.224Z,85.43
2023-01-03T10:04:05.579Z,85.33
2023-01-03T10:06:55.415Z,85.44
2023-01-03T10:09:59.322Z,85.75
2023-01-03T10:12:47.778Z,85.78
2023-01-03T10:15:47.115Z,85.45
2023-01-03T10:18:56.905Z,85.23
2023-01-03T10:21:51.942Z,85.04
2023-01-03T10:24:47.083Z,84.88
2023-01-03T10:27:36.123Z,85.01
2023-01-03T10:30:34.771Z,85.19
2023-01-03T10:33:32.593Z,84.75
2023-01-03T10:36:20.293Z,85.29
2023-01-03T10:39:08.687Z,84.99
2023-01-03T10:41:58.446Z,84.52
2023-01-03T10:45:01.092Z,84.57
2023-01-03T10:48:00.617Z,84.76
2023-01-03T10:50:47.123Z,84.40
2023-01-03T10:53:40.869Z,83.79
2023-01-03T10:56:30.633Z,83.88
2023-01-03T10:59:26.218Z,83.84
2023-01-03T11:02:13.668Z,83.92
2023-01-03T11:05:15.377Z,83.72
2023-01-03T11:08:03.964Z,83.75
2023-01-03T11:10:54.251Z,83.03
2023-01-03T11:13:41.720Z,82.91
2023-01-03T11:16:32.077Z,82.47
2023-01-03T11:19:18.813Z,82.30
2023-01-03T11:22:11.525Z,81.50
2023-01-03T11:25:05.398Z,80.10
2023-01-03T11:28:26.322Z,80.45
2023-01-03T11:31:39.159Z,80.65
2023-01-03T11:35:26.241Z,80.11
2023-01-03T11:38:21.192Z,80.51
2023-01-03T11:41:15.759Z,80.26
2023-01-03T11:44:04.358Z,80.67
2023-01-03T11:47:07.471Z,79.55
2023-01-03T11:50:12.061Z,80.06
2023-01-03T11:53:26.492Z,79.39
2023-01-03T11:56:43.340Z,79.48
2023-01-03T11:59:51.443Z,78.90
2023-01-03T12:03:21.411Z,78.90
2023-01-03T12:06:13.832Z,78.82
2023-01-03T12:09:25.548Z,78.78
2023-01-03T12:12:22.024Z,78.76
2023-01-03T12:15:21.743Z,78.35
2023-01-03T12:18:16.825Z,77.55
2023-01-03T12:21:15.034Z,78.52
2023-01-03T12:24:19.011Z,76.96
2023-01-03T12:27:15.691Z,77.93
2023-01-03T12:30:34.120Z,78.10
2023-01-03T12:33:43.049Z,78.89
2023-01-03T12:36:37.615Z,77.82
2023-01-03T12:39:33.007Z,78.40
2023-01-03T12:42:30.298Z,78.21
2023-01-03T12:45:38.793Z,78.42
2023-01-03T12:48:49.293Z,78.38
2023-01-03T12:51:35.914Z,77.90
2023-01-03T12:54:42.353Z,78.17
2023-01-03T12:57:49.618Z,78.85
2023-01-03T13:00:57.520Z,79.03
2023-01-03T13:03:58.207Z,78.91
2023-01-03T13:06:50.793Z,79.65
2023-01-03T13:09:41.053Z,79.58
2023-01-03T13:12:30.536Z,79.71
2023-01-03T13:15:37.787Z,79.83
2023-01-03T13:18:23.312Z,79.19
2023-01-03T13:21:46.651Z,79.58
2023-01-03T13:24:51.345Z,80.18
2023-01-03T13:27:48.017Z,79.68
2023-01-03T13:30:35.781Z,80.43
2023-01-03T13:33:21.568Z,80.56
2023-01-03T13:36:07.064Z,80.64
2023-01-03T13:38:52.488Z,79.97
2023-01-03T13:41:39.066Z,80.10
2023-01-03T13:44:24.792Z,79.69
2023-01-03T13:47:26.686Z,80.29
2023-01-03T13:50:26.570Z,79.29
2023-01-03T13:53:11.888Z,79.57
2023-01-03T13:56:21.749Z,80.03
2023-01-03T13:59:17.902Z,79.91
2023-01-03T14:02:06.574Z,78.95
2023-01-03T14:05:05.416Z,78.71
2023-01-03T14:08:14.641Z,78.68
2023-01-03T14:11:21.644Z,78.19
2023-01-03T14:14:13.116Z,78.29
2023-01-03T14:16:59.609Z,78.37
2023-01-03T14:19:54.776Z,78.02
2023-01-03T14:22:48.392Z,77.97
2023-01-03T14:25:42.563Z,77.47
2023-01-03T14:28:32.399Z,78.30
2023-01-03T14:31:21.984Z,77.98
2023-01-03T14:34:17.576Z,77.53
2023-01-03T14:37:12.156Z,77.86
2023-01-03T14:40:01.097Z,78.36
2023-01-03T14:42:46.673Z,77.84
2023-01-03T14:45:31.804Z,78.30
2023-01-03T14:48:18.433Z,78.01
2023-01-03T14:51:05.896Z,78.23
2023-01-03T14:53:52.828Z,78.27
2023-01-03T14:56:38.367Z,78.60
2023-01-03T14:59:23.882Z,78.58
2023-01-03T15:02:12.212Z,78.83
2023-01-03T15:05:01.063Z,78.65
2023-01-03T15:07:46.390Z,79.10
2023-01-03T15:10:42.086Z,78.87
2023-01-03T15:13:37.334Z,79.31
2023-01-03T15:16:34.439Z,79.45
2023-01-03T15:19:25.563Z,79.67
2023-01-03T15:22:18.774Z,79.75
2023-01-03T15:25:08.656Z,79.48
2023-01-03T15:27:54.491Z,79.31
2023-01-03T15:30:49.498Z,79.52
2023-01-03T15:33:35.251Z,79.36
2023-01-03T15:36:22.311Z,79.52
2023-01-03T15:39:12.851Z,79.14
2023-01-03T15:42:43.392Z,79.43
2023-01-03T15:45:28.576Z,79.66
2023-01-03T15:48:18.599Z,79.29
2023-01-03T15:51:05.392Z,79.31
2023-01-03T15:53:51.305Z,80.13
2023-01-03T15:56:36.767Z,80.09
2023-01-03T15:59:26.650Z,80.45
2023-01-03T16:02:16.902Z,80.87
2023-01-03T16:05:02.664Z,80.78
2023-01-03T16:07:48.082Z,80.99
2023-01-03T16:10:33.369Z,80.71
2023-01-03T16:13:21.018Z,81.25
2023-01-03T16:16:08.150Z,81.53
2023-01-03T16:18:54.624Z,81.13
2023-01-03T16:21:39.928Z,81.27
2023-01-03T16:24:25.487Z,80.92
2023-01-03T16:27:20.629Z,81.05
2023-01-03T16:30:07.525Z,81.42
2023-01-03T16:32:53.139Z,81.78
2023-01-03T16:35:38.555Z,81.31
2023-01-03T16:38:25.772Z,81.76
2023-01-03T16:41:11.319Z,81.56
2023-01-03T16:43:56.738Z,82.11
2023-01-03T16:46:42.192Z,82.43
2023-01-03T16:49:33.795Z,82.26
2023-01-03T16:52:25.063Z,82.27
2023-01-03T16:55:24.217Z,82.25
2023-01-03T16:58:15.645Z,82.06
2023-01-03T17:01:01.052Z,82.63
2023-01-03T17:03:46.363Z,82.55
2023-01-03T17:06:37.969Z,82.91
2023-01-03T17:09:30.443Z,83.07
2023-01-03T17:12:19.881Z,83.46
2023-01-03T17:15:05.698Z,83.32
2023-01-03T17:17:51.183Z,83.43
2023-01-03T17:20:36.659Z,83.56
2023-01-03T17:23:23.031Z,83.54
2023-01-03T17:26:15.079Z,83.52
2023-01-03T17:29:03.721Z,83.38
2023-01-03T17:31:49.605Z,83.36
2023-01-03T17:34:35.242Z,83.21
2023-01-03T17:37:22.686Z,83.00
2023-01-03T17:40:27.712Z,83.32
2023-01-03T17:43:22.805Z,83.58
2023-01-03T17:46:36.756Z,83.87
2023-01-03T17:49:25.256Z,83.40
2023-01-03T17:52:22.781Z,83.75
2023-01-03T17:55:24.655Z,84.00
2023-01-03T17:58:17.888Z,83.59
2023-01-03T18:01:04.273Z,84.02
2023-01-03T18:03:50.165Z,84.10
2023-01-03T18:06:35.899Z,83.88
2023-01-03T18:09:22.372Z,83.91
2023-01-03T18:12:13.231Z,84.32
2023-01-03T18:14:59.097Z,84.21
2023-01-03T18:17:45.268Z,84.26
2023-01-03T18:20:31.228Z,84.75
2023-01-03T18:23:22.785Z,84.68
2023-01-03T18:26:11.734Z,84.62
2023-01-03T18:28:57.340Z,84.60
2023-01-03T18:31:44.015Z,84.70
2023-01-03T18:34:29.583Z,84.71
2023-01-03T18:37:15.058Z,85.11
2023-01-03T18:40:01.397Z,84.83
2023-01-03T18:43:06.624Z,84.84
2023-01-03T18:45:52.204Z,85.17
2023-01-03T18:48:37.779Z,84.95
2023-01-03T18:51:27.306Z,85.22
2023-01-03T18:54:18.480Z,84.91
2023-01-03T18:57:04.245Z,84.71
2023-01-03T18:59:50.475Z,84.97
2023-01-03T19:02:36.439Z,85.15
2023-01-03T19:05:22.159Z,85.22
2023-01-03T19:08:09.065Z,85.26
2023-01-03T19:10:55.968Z,84.96
2023-01-03T19:13:50.532Z,85.22
2023-01-03T19:16:38.262Z,85.29
2023-01-03T19:19:23.570Z,85.34
2023-01-03T19:22:28.558Z,85.16
2023-01-03T19:25:25.924Z,85.29
2023-01-03T19:28:12.174Z,85.25
2023-01-03T19:30:58.182Z,85.88
2023-01-03T19:33:44.039Z,85.47
2023-01-03T19:36:29.421Z,85.75
2023-01-03T19:39:15.444Z,85.78
2023-01-03T19:42:19.853Z,85.59
2023-01-03T19:45:19.382Z,85.59
2023-01-03T19:48:23.444Z,86.18
2023-01-03T19:51:10.633Z,85.70
2023-01-03T19:53:56.314Z,85.71
2023-01-03T19:56:41.860Z,85.78
2023-01-03T19:59:30.315Z,85.72
2023-01-03T20:02:39.268Z,85.75
2023-01-03T20:05:30.390Z,85.89
2023-01-03T20:08:15.772Z,86.07
2023-01-03T20:11:02.283Z,85.92
2023-01-03T20:13:48.576Z,85.73
2023-01-03T20:16:34.409Z,85.96
2023-01-03T20:19:21.155Z,85.83
2023-01-03T20:22:06.695Z,86.36
2023-01-03T20:24:52.472Z,86.12
2023-01-03T20:27:44.384Z,86.13
2023-01-03T20:30:32.090Z,86.25
2023-01-03T20:33:17.432Z,86.09
2023-01-03T20:36:17.629Z,86.54
2023-01-03T20:39:23.381Z,86.57
2023-01-03T20:42:21.968Z,86.40
2023-01-03T20:45:08.544Z,86.49
2023-01-03T20:47:54.877Z,86.42
2023-01-03T20:50:40.324Z,86.61
2023-01-03T20:53:26.787Z,86.83
2023-01-03T20:56:13.106Z,86.49
2023-01-03T20:58:58.808Z,86.35
2023-01-03T21:01:45.376Z,86.67
2023-01-03T21:04:30.970Z,86.56
2023-01-03T21:07:50.995Z,86.60
2023-01-03T21:10:39.547Z,86.13
2023-01-03T21:13:25.274Z,86.29
2023-01-03T21:16:19.165Z,86.53
2023-01-03T21:19:13.511Z,86.57
2023-01-03T21:22:00.174Z,86.38
2023-01-03T21:24:47.879Z,86.34
2023-01-03T21:27:35.844Z,86.12
2023-01-03T21:30:23.512Z,86.31
2023-01-03T21:33:16.768Z,86.24
2023-01-03T21:36:02.397Z,86.31
2023-01-03T21:38:47.732Z,86.49
2023-01-03T21:41:35.407Z,86.69
2023-01-03T21:44:20.616Z,86.45
2023-01-03T21:47:06.138Z,86.47
2023-01-03T21:49:51.437Z,86.73
2023-01-03T21:52:36.785Z,86.95
2023-01-03T21:55:23.153Z,87.05
2023-01-03T21:58:11.736Z,86.86
2023-01-03T22:00:57.041Z,86.81
2023-01-03T22:04:01.169Z,87.02
2023-01-03T22:06:46.923Z,87.00
2023-01-03T22:09:50.967Z,86.79
2023-01-03T22:12:36.260Z,87.13
2023-01-03T22:15:23.122Z,86.74
2023-01-03T22:18:10.956Z,86.78
2023-01-03T22:20:56.538Z,86.79
2023-01-03T22:23:42.352Z,87.09
2023-01-03T22:26:34.324Z,87.03
2023-01-03T22:29:20.439Z,87.04
2023-01-03T22:32:05.971Z,86.86
2023-01-03T22:34:52.293Z,87.00
2023-01-03T22:37:38.564Z,86.96
2023-01-03T22:40:24.222Z,86.95
2023-01-03T22:43:09.711Z,87.21
2023-01-03T22:45:54.878Z,87.10
2023-01-03T22:48:40.583Z,86.93
2023-01-03T22:51:26.155Z,87.47
2023-01-03T22:54:11.556Z,87.64
2023-01-03T22:56:57.365Z,87.65
2023-01-03T22:59:42.963Z,87.30
2023-01-03T23:02:29.472Z,87.27
2023-01-03T23:05:15.809Z,87.21
2023-01-03T23:08:01.352Z,87.28
2023-01-03T23:10:46.757Z,87.20
2023-01-03T23:13:35.904Z,86.97
2023-01-03T23:16:21.674Z,87.11
2023-01-03T23:19:10.747Z,86.83
2023-01-03T23:21:58.299Z,87.00
2023-01-03T23:24:43.457Z,87.00
2023-01-03T23:27:28.993Z,86.96
2023-01-03T23:30:14.504Z,87.13
2023-01-03T23:32:59.895Z,86.89
2023-01-03T23:35:45.300Z,87.09
2023-01-03T23:38:30.544Z,87.21
2023-01-03T23:41:17.165Z,87.07
2023-01-03T23:44:02.789Z,87.24
2023-01-03T23:46:48.012Z,87.30
2023-01-03T23:49:33.362Z,87.26
2023-01-03T23:52:18.653Z,87.28
2023-01-03T23:55:11.950Z,87.55
2023-01-03T23:57:58.107Z,87.33
